Time;durP1;ratioP1;P1;durP2;ratioP2;P2;SDS_P1;SDS_P2;PMS_P1;PMS_P2;Temp;Humidity;BMP_temperature;BMP_pressure;BME280_temperature;BME280_humidity;BME280_pressure;Samples;Min_cycle;Max_cycle;Signal;HPM_P1;HPM_P2
2021/09/07 00:01:08;;;;;;;18.40;9.33;;;;;;;;;;5059426;28;20465;-72
2021/09/07 00:03:37;;;;;;;13.73;8.67;;;;;;;;;;5060235;28;20469;-72
2021/09/07 00:06:05;;;;;;;13.43;8.77;;;;;;;;;;5058968;28;20526;-71
2021/09/07 00:08:34;;;;;;;11.53;8.00;;;;;;;;;;5057926;28;20707;-72
2021/09/07 00:11:04;;;;;;;10.83;7.80;;;;;;;;;;5059510;28;20460;-72
2021/09/07 00:13:32;;;;;;;12.13;8.53;;;;;;;;;;5059208;28;20457;-72
2021/09/07 00:16:01;;;;;;;14.33;7.57;;;;;;;;;;5059916;28;20461;-72
2021/09/07 00:18:29;;;;;;;15.80;9.20;;;;;;;;;;5059414;28;20492;-71
2021/09/07 00:20:58;;;;;;;13.43;10.30;;;;;;;;;;5060533;28;20470;-71
2021/09/07 00:23:26;;;;;;;13.13;8.83;;;;;;;;;;5059817;28;20457;-71
2021/09/07 00:25:55;;;;;;;13.47;8.47;;;;;;;;;;5059403;28;20919;-71
2021/09/07 00:28:25;;;;;;;11.43;8.07;;;;;;;;;;5060548;28;20461;-71
2021/09/07 00:30:53;;;;;;;17.03;10.33;;;;;;;;;;5059358;28;20460;-71
2021/09/07 00:33:22;;;;;;;14.70;9.70;;;;;;;;;;5059505;28;20461;-71
2021/09/07 00:35:50;;;;;;;15.30;10.23;;;;;;;;;;5059141;28;20552;-71
2021/09/07 00:38:19;;;;;;;20.37;11.00;;;;;;;;;;5059026;28;20499;-71
2021/09/07 00:40:47;;;;;;;18.43;11.63;;;;;;;;;;5059455;28;20933;-71
2021/09/07 00:43:16;;;;;;;17.50;10.77;;;;;;;;;;5059174;28;20507;-71
2021/09/07 00:45:46;;;;;;;19.60;12.33;;;;;;;;;;5059376;28;20531;-71
2021/09/07 00:48:15;;;;;;;13.90;10.00;;;;;;;;;;5058549;28;20465;-71
2021/09/07 00:50:43;;;;;;;15.43;10.20;;;;;;;;;;5058976;28;20644;-70
2021/09/07 00:53:12;;;;;;;16.37;10.50;;;;;;;;;;5058999;28;20542;-71
2021/09/07 00:55:40;;;;;;;15.57;10.87;;;;;;;;;;5058058;28;20563;-71
2021/09/07 00:58:09;;;;;;;24.93;11.00;;;;;;;;;;5058489;28;20589;-71
2021/09/07 01:00:38;;;;;;;17.53;13.10;;;;;;;;;;5058439;28;20468;-71
2021/09/07 01:03:08;;;;;;;16.47;11.17;;;;;;;;;;5059241;28;20647;-71
2021/09/07 01:05:38;;;;;;;17.40;10.83;;;;;;;;;;5059057;28;20556;-71
2021/09/07 01:08:07;;;;;;;16.80;10.40;;;;;;;;;;5058115;28;20941;-71
2021/09/07 01:10:36;;;;;;;15.73;12.60;;;;;;;;;;5058690;28;20878;-71
2021/09/07 01:13:05;;;;;;;17.13;11.70;;;;;;;;;;5058436;28;20461;-71
2021/09/07 01:15:33;;;;;;;15.13;9.53;;;;;;;;;;5057728;28;20465;-71
2021/09/07 01:18:02;;;;;;;14.83;10.53;;;;;;;;;;5057529;28;20481;-71
2021/09/07 01:20:32;;;;;;;16.30;10.87;;;;;;;;;;5057473;28;20552;-71
2021/09/07 01:23:00;;;;;;;16.53;11.83;;;;;;;;;;5058438;28;20862;-71
2021/09/07 01:25:30;;;;;;;16.23;11.70;;;;;;;;;;5057986;28;20564;-71
2021/09/07 01:28:02;;;;;;;13.37;8.33;;;;;;;;;;5058068;28;20854;-71
2021/09/07 01:30:30;;;;;;;13.97;7.90;;;;;;;;;;5058169;28;20465;-71
2021/09/07 01:32:59;;;;;;;17.90;8.23;;;;;;;;;;5058026;28;20477;-71
2021/09/07 01:35:28;;;;;;;14.83;9.23;;;;;;;;;;5057495;28;20461;-71
2021/09/07 01:37:56;;;;;;;12.67;8.23;;;;;;;;;;5057910;28;20461;-71
2021/09/07 01:40:24;;;;;;;12.40;8.20;;;;;;;;;;5058419;28;20492;-71
2021/09/07 01:42:55;;;;;;;12.30;7.17;;;;;;;;;;5057842;28;20773;-71
2021/09/07 01:45:23;;;;;;;11.23;6.83;;;;;;;;;;5058685;28;21082;-71
2021/09/07 01:47:53;;;;;;;9.90;6.90;;;;;;;;;;5057497;28;20477;-71
2021/09/07 01:50:22;;;;;;;15.07;7.67;;;;;;;;;;5058569;28;20461;-71
2021/09/07 01:52:50;;;;;;;10.07;7.10;;;;;;;;;;5057791;28;20821;-71
2021/09/07 01:55:19;;;;;;;8.93;6.40;;;;;;;;;;5056754;28;20454;-72
2021/09/07 01:57:49;;;;;;;14.23;7.27;;;;;;;;;;5058053;28;20461;-71
2021/09/07 02:00:20;;;;;;;10.77;5.93;;;;;;;;;;5057180;28;20579;-71
2021/09/07 02:02:47;;;;;;;11.17;7.10;;;;;;;;;;5057544;28;20467;-71
2021/09/07 02:05:15;;;;;;;14.43;6.53;;;;;;;;;;5055879;28;20480;-71
2021/09/07 02:07:43;;;;;;;12.30;7.50;;;;;;;;;;5057327;28;20865;-72
2021/09/07 02:10:11;;;;;;;7.53;6.47;;;;;;;;;;5057315;28;20814;-72
2021/09/07 02:12:39;;;;;;;10.93;6.63;;;;;;;;;;5057477;28;20488;-71
2021/09/07 02:15:07;;;;;;;17.17;8.23;;;;;;;;;;5057243;28;20461;-71
2021/09/07 02:17:37;;;;;;;17.50;9.17;;;;;;;;;;5057023;28;20472;-70
2021/09/07 02:20:05;;;;;;;17.30;9.30;;;;;;;;;;5056761;28;20732;-70
2021/09/07 02:22:33;;;;;;;17.67;10.63;;;;;;;;;;5056774;28;20464;-72
2021/09/07 02:25:01;;;;;;;17.53;11.47;;;;;;;;;;5056901;28;20520;-72
2021/09/07 02:27:29;;;;;;;18.70;11.87;;;;;;;;;;5057511;28;20496;-71
2021/09/07 02:29:57;;;;;;;19.50;11.60;;;;;;;;;;5057764;28;20461;-72
2021/09/07 02:32:30;;;;;;;18.97;12.53;;;;;;;;;;5057156;28;20455;-72
2021/09/07 02:34:59;;;;;;;17.07;11.30;;;;;;;;;;5057276;28;20488;-72
2021/09/07 02:37:27;;;;;;;21.57;13.90;;;;;;;;;;5056615;28;20752;-72
2021/09/07 02:39:54;;;;;;;16.37;11.70;;;;;;;;;;5057554;28;20765;-72
2021/09/07 02:42:22;;;;;;;22.00;13.47;;;;;;;;;;5056744;28;20461;-72
2021/09/07 02:44:50;;;;;;;25.47;13.00;;;;;;;;;;5056711;28;20465;-72
2021/09/07 02:47:18;;;;;;;20.50;12.87;;;;;;;;;;5057022;28;20587;-72
2021/09/07 02:49:46;;;;;;;23.40;14.00;;;;;;;;;;5056067;28;20735;-72
2021/09/07 02:52:15;;;;;;;25.67;13.53;;;;;;;;;;5057125;28;20750;-72
2021/09/07 02:54:43;;;;;;;20.97;13.40;;;;;;;;;;5056906;28;20964;-72
2021/09/07 02:57:11;;;;;;;17.30;13.27;;;;;;;;;;5056150;28;20454;-71
2021/09/07 02:59:38;;;;;;;24.77;14.40;;;;;;;;;;5056712;28;20485;-72
2021/09/07 03:02:06;;;;;;;21.87;14.20;;;;;;;;;;5056271;28;20465;-72
2021/09/07 03:04:34;;;;;;;24.10;13.87;;;;;;;;;;5056592;28;20457;-72
2021/09/07 03:07:02;;;;;;;21.00;13.10;;;;;;;;;;5056408;28;20508;-72
2021/09/07 03:09:31;;;;;;;22.47;12.87;;;;;;;;;;5056160;28;20469;-72
2021/09/07 03:11:59;;;;;;;23.50;13.67;;;;;;;;;;5055689;28;20810;-72
2021/09/07 03:14:27;;;;;;;24.77;14.37;;;;;;;;;;5055730;28;20453;-72
2021/09/07 03:16:54;;;;;;;22.43;13.10;;;;;;;;;;5055642;28;20471;-71
2021/09/07 03:19:22;;;;;;;22.57;14.47;;;;;;;;;;5054804;28;20568;-72
2021/09/07 03:21:50;;;;;;;28.10;15.70;;;;;;;;;;5056492;28;20798;-72
2021/09/07 03:24:18;;;;;;;26.93;16.00;;;;;;;;;;5055548;28;20496;-71
2021/09/07 03:26:47;;;;;;;25.37;15.50;;;;;;;;;;5056298;28;20909;-72
2021/09/07 03:29:14;;;;;;;26.47;15.30;;;;;;;;;;5056192;28;20559;-72
2021/09/07 03:31:42;;;;;;;27.47;15.17;;;;;;;;;;5055773;28;20454;-72
2021/09/07 03:34:10;;;;;;;27.30;17.00;;;;;;;;;;5059599;28;20468;-71
2021/09/07 03:36:38;;;;;;;26.13;15.77;;;;;;;;;;5060668;28;20472;-72
2021/09/07 03:39:06;;;;;;;28.20;16.57;;;;;;;;;;5059882;28;20481;-72
2021/09/07 03:41:34;;;;;;;23.53;14.57;;;;;;;;;;5059509;28;20464;-71
2021/09/07 03:44:03;;;;;;;26.53;15.30;;;;;;;;;;5059811;28;20861;-71
2021/09/07 03:46:31;;;;;;;25.47;16.73;;;;;;;;;;5059846;28;20465;-71
2021/09/07 03:49:00;;;;;;;22.77;15.10;;;;;;;;;;5060215;28;20788;-71
2021/09/07 03:51:28;;;;;;;27.57;16.17;;;;;;;;;;5060271;28;20468;-71
2021/09/07 03:53:56;;;;;;;26.87;16.77;;;;;;;;;;5059927;28;20576;-71
2021/09/07 03:56:26;;;;;;;26.80;14.73;;;;;;;;;;5059803;28;20729;-71
2021/09/07 03:58:53;;;;;;;29.80;15.67;;;;;;;;;;5059790;28;20484;-72
2021/09/07 04:01:22;;;;;;;26.00;16.00;;;;;;;;;;5058847;28;20882;-72
2021/09/07 04:03:50;;;;;;;29.27;17.20;;;;;;;;;;5059533;28;20532;-71
2021/09/07 04:06:18;;;;;;;30.43;18.37;;;;;;;;;;5058347;28;20545;-72
2021/09/07 04:08:46;;;;;;;21.90;13.90;;;;;;;;;;5060252;28;20472;-71
2021/09/07 04:11:14;;;;;;;21.80;13.70;;;;;;;;;;5060862;28;20468;-72
2021/09/07 04:13:42;;;;;;;17.40;13.03;;;;;;;;;;5060214;28;20993;-71
2021/09/07 04:16:10;;;;;;;21.57;12.27;;;;;;;;;;5059892;28;21135;-72
2021/09/07 04:18:39;;;;;;;19.57;12.87;;;;;;;;;;5060025;28;20523;-72
2021/09/07 04:21:09;;;;;;;18.60;12.77;;;;;;;;;;5059536;28;20572;-72
2021/09/07 04:23:40;;;;;;;17.50;10.60;;;;;;;;;;5057784;28;20866;-72
2021/09/07 04:26:07;;;;;;;15.77;10.33;;;;;;;;;;5056926;28;21187;-72
2021/09/07 04:28:35;;;;;;;15.80;10.63;;;;;;;;;;5048862;28;20880;-71
2021/09/07 04:31:03;;;;;;;22.37;12.67;;;;;;;;;;5044551;28;20462;-72
2021/09/07 04:33:31;;;;;;;16.57;11.73;;;;;;;;;;5039080;28;20859;-71
2021/09/07 04:36:00;;;;;;;21.60;12.17;;;;;;;;;;5039114;28;20532;-72
2021/09/07 04:38:28;;;;;;;18.33;11.97;;;;;;;;;;5038654;28;20493;-72
2021/09/07 04:40:55;;;;;;;19.00;12.40;;;;;;;;;;5038458;28;20528;-72
2021/09/07 04:43:23;;;;;;;21.13;13.37;;;;;;;;;;5038818;28;20548;-71
2021/09/07 04:45:51;;;;;;;19.77;12.50;;;;;;;;;;5039565;28;20478;-72
2021/09/07 04:48:18;;;;;;;18.67;12.07;;;;;;;;;;5039366;28;20846;-72
2021/09/07 04:50:46;;;;;;;15.83;11.27;;;;;;;;;;5038748;28;20490;-71
2021/09/07 04:53:16;;;;;;;21.53;13.57;;;;;;;;;;5038050;28;20458;-72
2021/09/07 04:55:43;;;;;;;22.60;14.17;;;;;;;;;;5038317;28;20466;-72
2021/09/07 04:58:11;;;;;;;22.40;12.97;;;;;;;;;;5038206;28;20473;-72
2021/09/07 05:00:39;;;;;;;20.93;13.37;;;;;;;;;;5037067;28;20515;-72
2021/09/07 05:03:07;;;;;;;24.47;13.67;;;;;;;;;;5035171;28;20458;-71
2021/09/07 05:05:35;;;;;;;23.90;15.17;;;;;;;;;;5036610;28;20454;-71
2021/09/07 05:08:02;;;;;;;27.13;15.00;;;;;;;;;;5037462;28;20557;-71
2021/09/07 05:10:32;;;;;;;24.60;16.07;;;;;;;;;;5036740;28;20466;-71
2021/09/07 05:13:00;;;;;;;31.93;16.77;;;;;;;;;;5037615;28;20553;-71
2021/09/07 05:15:29;;;;;;;24.97;15.60;;;;;;;;;;5037315;28;20466;-71
2021/09/07 05:17:57;;;;;;;26.80;14.40;;;;;;;;;;5037130;28;20509;-71
2021/09/07 05:20:25;;;;;;;23.70;14.40;;;;;;;;;;5036189;28;21098;-72
2021/09/07 05:22:53;;;;;;;27.97;16.53;;;;;;;;;;5037809;28;20458;-72
2021/09/07 05:25:20;;;;;;;24.30;14.20;;;;;;;;;;5056373;28;20485;-72
2021/09/07 05:27:50;;;;;;;25.50;15.77;;;;;;;;;;5035077;28;20466;-72
2021/09/07 05:30:17;;;;;;;24.63;14.90;;;;;;;;;;5034188;28;20457;-72
2021/09/07 05:32:45;;;;;;;23.90;14.80;;;;;;;;;;5034156;28;20576;-71
2021/09/07 05:35:13;;;;;;;25.70;15.97;;;;;;;;;;5034192;28;20454;-71
2021/09/07 05:37:44;;;;;;;28.77;15.93;;;;;;;;;;5033978;28;20856;-71
2021/09/07 05:40:13;;;;;;;31.07;17.87;;;;;;;;;;5045174;28;20527;-72
2021/09/07 05:42:43;;;;;;;30.20;18.30;;;;;;;;;;5055332;28;20613;-72
2021/09/07 05:45:13;;;;;;;27.80;16.50;;;;;;;;;;5034347;28;20465;-72
2021/09/07 05:47:41;;;;;;;26.43;17.40;;;;;;;;;;5042158;28;20564;-71
2021/09/07 05:50:09;;;;;;;24.10;16.70;;;;;;;;;;5037172;28;20470;-71
2021/09/07 05:52:37;;;;;;;21.83;12.13;;;;;;;;;;5045979;28;20454;-71
2021/09/07 05:55:05;;;;;;;19.17;11.77;;;;;;;;;;5040080;28;20462;-71
2021/09/07 05:57:36;;;;;;;19.93;12.00;;;;;;;;;;5037199;28;20827;-71
2021/09/07 06:00:07;;;;;;;22.43;14.07;;;;;;;;;;5035289;28;20577;-74
2021/09/07 06:02:39;;;;;;;26.30;14.77;;;;;;;;;;5035546;28;20971;-73
2021/09/07 06:05:12;;;;;;;22.50;16.47;;;;;;;;;;5035614;28;20909;-72
2021/09/07 06:07:40;;;;;;;22.13;14.10;;;;;;;;;;5050707;28;20979;-72
2021/09/07 06:10:10;;;;;;;24.37;15.60;;;;;;;;;;5055914;28;20465;-72
2021/09/07 06:12:39;;;;;;;28.27;15.60;;;;;;;;;;5050085;28;21106;-72
2021/09/07 06:15:10;;;;;;;27.00;17.50;;;;;;;;;;5035493;28;20844;-72
2021/09/07 06:17:39;;;;;;;25.23;16.70;;;;;;;;;;5036113;28;20516;-71
2021/09/07 06:20:08;;;;;;;32.10;18.27;;;;;;;;;;5035377;28;20493;-72
2021/09/07 06:22:38;;;;;;;27.50;18.03;;;;;;;;;;5053365;28;20583;-73
2021/09/07 06:25:07;;;;;;;26.00;16.90;;;;;;;;;;5049232;28;20449;-72
2021/09/07 06:27:35;;;;;;;30.00;18.20;;;;;;;;;;5055704;28;20766;-72
2021/09/07 06:30:03;;;;;;;30.90;17.73;;;;;;;;;;5056102;28;20461;-73
2021/09/07 06:32:34;;;;;;;24.33;17.23;;;;;;;;;;5056466;28;20862;-73
2021/09/07 06:35:03;;;;;;;29.73;18.20;;;;;;;;;;5055338;28;20504;-72
2021/09/07 06:37:31;;;;;;;34.13;20.40;;;;;;;;;;5056903;28;20473;-73
2021/09/07 06:39:59;;;;;;;29.73;17.17;;;;;;;;;;5055319;28;20477;-72
2021/09/07 06:42:31;;;;;;;32.37;19.83;;;;;;;;;;5055067;28;20477;-73
2021/09/07 06:45:02;;;;;;;36.33;22.30;;;;;;;;;;5036555;28;20493;-73
2021/09/07 06:47:37;;;;;;;31.60;21.20;;;;;;;;;;5047106;28;20469;-73
2021/09/07 06:50:07;;;;;;;31.30;19.27;;;;;;;;;;5037487;28;20484;-72
2021/09/07 06:52:35;;;;;;;31.97;20.33;;;;;;;;;;5047634;28;20457;-72
2021/09/07 06:55:04;;;;;;;33.10;21.00;;;;;;;;;;5055770;28;20459;-72
2021/09/07 06:57:39;;;;;;;33.83;21.93;;;;;;;;;;5054821;28;20471;-72
2021/09/07 07:00:12;;;;;;;30.60;20.87;;;;;;;;;;5048158;28;20482;-73
2021/09/07 07:02:42;;;;;;;40.00;21.37;;;;;;;;;;5040723;28;20943;-71
2021/09/07 07:05:12;;;;;;;28.80;19.63;;;;;;;;;;5035512;28;20473;-72
2021/09/07 07:07:40;;;;;;;27.70;19.23;;;;;;;;;;5034187;28;20465;-72
2021/09/07 07:10:11;;;;;;;33.60;20.60;;;;;;;;;;5046393;28;21049;-72
2021/09/07 07:12:39;;;;;;;28.00;18.63;;;;;;;;;;5053012;28;20484;-72
2021/09/07 07:15:07;;;;;;;32.40;21.10;;;;;;;;;;5053949;28;20952;-72
2021/09/07 07:17:37;;;;;;;28.27;18.43;;;;;;;;;;5053966;28;20469;-72
2021/09/07 07:20:09;;;;;;;33.80;22.50;;;;;;;;;;5049512;28;20461;-73
2021/09/07 07:22:42;;;;;;;27.63;20.00;;;;;;;;;;5045898;28;20457;-73
2021/09/07 07:25:10;;;;;;;26.10;18.83;;;;;;;;;;5049794;28;20461;-73
2021/09/07 07:27:39;;;;;;;20.90;13.87;;;;;;;;;;5045053;28;20893;-72
2021/09/07 07:30:13;;;;;;;29.10;13.40;;;;;;;;;;5040644;28;20453;-73
2021/09/07 07:32:42;;;;;;;17.37;12.60;;;;;;;;;;5034380;28;20565;-73
2021/09/07 07:35:14;;;;;;;15.80;10.30;;;;;;;;;;5044692;28;20863;-73
2021/09/07 07:37:43;;;;;;;17.10;12.70;;;;;;;;;;5036512;28;20485;-73
2021/09/07 07:40:12;;;;;;;17.93;12.47;;;;;;;;;;5035510;28;20489;-72
2021/09/07 07:42:41;;;;;;;11.73;8.63;;;;;;;;;;5052215;28;20491;-73
2021/09/07 07:45:09;;;;;;;16.73;11.10;;;;;;;;;;5054387;28;20519;-73
2021/09/07 07:47:39;;;;;;;12.33;7.90;;;;;;;;;;5051705;28;20458;-73
2021/09/07 07:50:10;;;;;;;12.00;8.03;;;;;;;;;;5040129;28;20561;-74
2021/09/07 07:52:38;;;;;;;10.67;7.80;;;;;;;;;;5043797;28;20515;-73
2021/09/07 07:55:09;;;;;;;10.80;7.80;;;;;;;;;;5034360;28;20469;-75
2021/09/07 07:57:37;;;;;;;11.90;7.67;;;;;;;;;;5053506;28;21051;-72
2021/09/07 08:00:05;;;;;;;11.70;8.30;;;;;;;;;;5050455;28;20494;-72
2021/09/07 08:02:56;;;;;;;;;;;;;;;;;;;;;
2021/09/07 08:05:27;;;;;;;12.70;9.83;;;;;;;;;;5060098;28;20455;-73
2021/09/07 08:08:01;;;;;;;10.73;8.50;;;;;;;;;;5042970;28;20549;-74
2021/09/07 08:10:31;;;;;;;12.27;8.27;;;;;;;;;;5034522;28;20469;-73
2021/09/07 08:13:04;;;;;;;8.80;7.07;;;;;;;;;;5048009;28;20489;-73
2021/09/07 08:15:32;;;;;;;12.63;9.30;;;;;;;;;;5048087;28;20547;-72
2021/09/07 08:18:00;;;;;;;11.13;8.20;;;;;;;;;;5043974;28;21041;-73
2021/09/07 08:20:29;;;;;;;12.20;9.33;;;;;;;;;;5055128;28;20517;-73
2021/09/07 08:22:58;;;;;;;10.27;8.20;;;;;;;;;;5054120;28;20941;-73
2021/09/07 08:25:30;;;;;;;9.97;6.83;;;;;;;;;;5048360;28;20526;-73
2021/09/07 08:28:00;;;;;;;9.20;6.80;;;;;;;;;;5056525;28;20553;-72
2021/09/07 08:30:33;;;;;;;10.80;7.73;;;;;;;;;;5042589;28;20564;-73
2021/09/07 08:33:01;;;;;;;9.73;7.10;;;;;;;;;;5042742;28;20761;-72
2021/09/07 08:35:34;;;;;;;15.13;8.13;;;;;;;;;;5048739;28;20457;-72
2021/09/07 08:38:06;;;;;;;14.23;6.47;;;;;;;;;;5037969;28;20463;-72
2021/09/07 08:40:35;;;;;;;9.30;7.27;;;;;;;;;;5037422;28;20493;-72
2021/09/07 08:43:07;;;;;;;15.30;10.90;;;;;;;;;;5048728;28;20446;-71
2021/09/07 08:45:38;;;;;;;12.47;6.43;;;;;;;;;;5041723;28;20458;-71
2021/09/07 08:48:10;;;;;;;12.47;9.83;;;;;;;;;;5051972;28;20717;-72
2021/09/07 08:50:41;;;;;;;8.87;5.97;;;;;;;;;;5057454;28;20528;-71
2021/09/07 08:53:14;;;;;;;12.30;9.73;;;;;;;;;;5054581;28;20461;-71
2021/09/07 08:58:43;;;;;;;7.20;6.50;;;;;;;;;;5044462;28;20554;-71
2021/09/07 09:01:13;;;;;;;9.93;5.70;;;;;;;;;;5048308;28;20481;-71
2021/09/07 09:03:52;;;;;;;12.47;7.53;;;;;;;;;;5043622;28;20894;-71
2021/09/07 09:06:54;;;;;;;9.73;5.90;;;;;;;;;;5040678;28;20451;-72
2021/09/07 09:09:57;;;;;;;30.10;18.10;;;;;;;;;;5050926;28;20588;-71
2021/09/07 09:12:40;;;;;;;7.97;5.17;;;;;;;;;;5038522;28;20512;-71
2021/09/07 09:15:13;;;;;;;6.27;4.43;;;;;;;;;;5051116;28;20465;-71
2021/09/07 09:17:43;;;;;;;12.60;6.37;;;;;;;;;;5044296;28;20493;-71
2021/09/07 09:20:17;;;;;;;9.03;5.23;;;;;;;;;;5037965;28;20462;-73
2021/09/07 09:22:46;;;;;;;7.37;5.10;;;;;;;;;;5043588;28;20481;-73
2021/09/07 09:25:33;;;;;;;7.40;4.17;;;;;;;;;;5055673;28;20566;-71
2021/09/07 09:28:31;;;;;;;5.30;4.20;;;;;;;;;;5056543;28;21072;-71
2021/09/07 09:31:04;;;;;;;6.53;4.40;;;;;;;;;;5049570;28;20556;-72
2021/09/07 09:33:33;;;;;;;7.27;3.90;;;;;;;;;;5038049;28;20473;-73
2021/09/07 09:36:03;;;;;;;5.07;3.57;;;;;;;;;;5041164;28;20886;-73
2021/09/07 09:38:33;;;;;;;9.37;4.67;;;;;;;;;;5041007;28;20451;-72
2021/09/07 09:41:02;;;;;;;7.40;3.90;;;;;;;;;;5045477;28;20573;-73
2021/09/07 09:43:32;;;;;;;7.20;4.43;;;;;;;;;;5035785;28;20735;-73
2021/09/07 09:46:18;;;;;;;6.13;3.90;;;;;;;;;;5036462;28;20470;-74
2021/09/07 09:48:48;;;;;;;7.30;3.90;;;;;;;;;;5055385;28;20457;-73
2021/09/07 09:51:26;;;;;;;8.27;6.17;;;;;;;;;;5048838;28;20599;-73
2021/09/07 09:53:55;;;;;;;12.90;6.63;;;;;;;;;;5042210;28;20449;-72
2021/09/07 09:56:24;;;;;;;6.70;4.30;;;;;;;;;;5048308;28;20495;-72
2021/09/07 09:58:54;;;;;;;8.60;5.70;;;;;;;;;;5044505;28;20465;-73
2021/09/07 10:01:24;;;;;;;6.83;5.00;;;;;;;;;;5043688;28;20926;-73
2021/09/07 10:03:54;;;;;;;6.63;3.53;;;;;;;;;;5047308;28;20544;-73
2021/09/07 10:06:25;;;;;;;8.93;3.40;;;;;;;;;;5038994;28;20443;-71
2021/09/07 10:08:57;;;;;;;5.80;3.30;;;;;;;;;;5053483;28;20464;-72
2021/09/07 10:11:28;;;;;;;8.00;4.13;;;;;;;;;;5061402;28;20810;-71
2021/09/07 10:13:59;;;;;;;6.03;4.23;;;;;;;;;;5057239;28;20457;-71
2021/09/07 10:16:38;;;;;;;6.90;5.40;;;;;;;;;;5045167;28;20467;-72
2021/09/07 10:19:35;;;;;;;7.97;5.23;;;;;;;;;;5044133;28;20982;-72
2021/09/07 10:24:57;;;;;;;6.37;5.10;;;;;;;;;;5046823;28;20469;-72
2021/09/07 10:27:40;;;;;;;9.90;6.77;;;;;;;;;;5042057;28;20453;-72
2021/09/07 10:30:09;;;;;;;12.20;5.10;;;;;;;;;;5037618;28;20546;-72
2021/09/07 10:32:43;;;;;;;5.97;4.53;;;;;;;;;;5052378;28;20446;-71
2021/09/07 10:35:18;;;;;;;8.77;4.13;;;;;;;;;;5040328;28;20500;-72
2021/09/07 10:38:05;;;;;;;6.73;4.07;;;;;;;;;;5041401;28;20512;-71
2021/09/07 10:40:40;;;;;;;7.40;4.43;;;;;;;;;;5031406;28;20462;-73
2021/09/07 10:43:08;;;;;;;6.33;4.10;;;;;;;;;;5038567;28;20508;-72
2021/09/07 10:45:39;;;;;;;5.70;4.17;;;;;;;;;;5039769;28;20462;-73
2021/09/07 10:48:27;;;;;;;6.73;4.50;;;;;;;;;;5040718;28;20551;-72
2021/09/07 10:51:27;;;;;;;6.00;4.33;;;;;;;;;;5028119;28;20553;-73
2021/09/07 10:54:12;;;;;;;6.63;4.50;;;;;;;;;;5044261;28;20456;-72
2021/09/07 10:56:44;;;;;;;5.80;4.30;;;;;;;;;;5037117;28;20464;-72
2021/09/07 10:59:31;;;;;;;8.23;3.87;;;;;;;;;;5036790;28;20462;-72
2021/09/07 11:02:49;;;;;;;7.60;4.60;;;;;;;;;;5034745;28;20486;-73
2021/09/07 11:05:37;;;;;;;7.30;4.57;;;;;;;;;;5031610;28;20524;-73
2021/09/07 11:08:10;;;;;;;6.70;3.63;;;;;;;;;;5034543;28;20523;-73
2021/09/07 11:10:39;;;;;;;5.53;3.07;;;;;;;;;;5045758;28;21092;-71
2021/09/07 11:13:16;;;;;;;7.67;3.83;;;;;;;;;;5052157;28;20480;-71
2021/09/07 11:15:56;;;;;;;7.10;3.67;;;;;;;;;;5033440;28;20561;-71
2021/09/07 11:18:31;;;;;;;5.93;3.90;;;;;;;;;;5033741;28;20454;-71
2021/09/07 11:21:03;;;;;;;7.70;5.30;;;;;;;;;;5036776;28;20493;-71
2021/09/07 11:23:37;;;;;;;7.70;5.27;;;;;;;;;;5045609;28;20517;-72
2021/09/07 11:26:06;;;;;;;5.20;4.00;;;;;;;;;;5033697;28;20454;-72
2021/09/07 11:28:41;;;;;;;6.67;4.57;;;;;;;;;;5038709;28;20453;-72
2021/09/07 11:31:24;;;;;;;9.23;5.73;;;;;;;;;;5053614;28;20792;-73
2021/09/07 11:33:59;;;;;;;7.50;4.33;;;;;;;;;;5027679;28;20470;-73
2021/09/07 11:36:27;;;;;;;6.60;5.33;;;;;;;;;;5035274;28;20472;-73
2021/09/07 11:39:14;;;;;;;6.47;4.03;;;;;;;;;;5038345;28;20450;-73
2021/09/07 11:41:42;;;;;;;11.03;4.50;;;;;;;;;;5032235;28;20583;-72
2021/09/07 11:44:11;;;;;;;7.07;4.80;;;;;;;;;;5033249;28;20723;-71
2021/09/07 11:46:41;;;;;;;6.07;4.27;;;;;;;;;;5034651;28;20493;-71
2021/09/07 11:49:13;;;;;;;9.97;4.50;;;;;;;;;;5040338;28;20527;-72
2021/09/07 11:51:45;;;;;;;8.23;4.87;;;;;;;;;;5045486;28;20468;-72
2021/09/07 11:54:19;;;;;;;11.90;6.57;;;;;;;;;;5056813;28;20450;-72
2021/09/07 11:57:00;;;;;;;5.93;4.17;;;;;;;;;;5055210;28;20471;-72
2021/09/07 11:59:28;;;;;;;6.80;3.10;;;;;;;;;;5046441;28;20528;-71
2021/09/07 12:01:59;;;;;;;5.27;4.07;;;;;;;;;;5050537;28;20525;-72
2021/09/07 12:04:28;;;;;;;5.07;2.90;;;;;;;;;;5037987;28;20481;-72
2021/09/07 12:06:56;;;;;;;8.13;4.67;;;;;;;;;;5053131;28;20622;-72
2021/09/07 12:09:30;;;;;;;5.97;4.50;;;;;;;;;;5051850;28;20533;-71
2021/09/07 12:12:06;;;;;;;6.97;3.77;;;;;;;;;;5037875;28;20466;-71
2021/09/07 12:14:37;;;;;;;8.23;3.97;;;;;;;;;;5039048;28;20920;-70
2021/09/07 12:17:06;;;;;;;10.00;4.57;;;;;;;;;;5037573;28;20478;-71
2021/09/07 12:19:36;;;;;;;7.73;4.50;;;;;;;;;;5054976;28;20460;-72
2021/09/07 12:22:08;;;;;;;6.17;4.47;;;;;;;;;;5071939;28;20899;-73
2021/09/07 12:24:43;;;;;;;7.80;4.60;;;;;;;;;;5078585;28;20853;-73
2021/09/07 12:27:35;;;;;;;6.63;5.17;;;;;;;;;;5059042;28;20472;-72
2021/09/07 12:30:16;;;;;;;7.80;4.77;;;;;;;;;;5042269;28;20473;-72
2021/09/07 12:32:51;;;;;;;5.23;3.00;;;;;;;;;;5037337;28;20465;-72
2021/09/07 12:35:32;;;;;;;7.43;3.20;;;;;;;;;;5048159;28;20508;-71
2021/09/07 12:38:07;;;;;;;6.93;3.87;;;;;;;;;;5049166;28;20470;-72
2021/09/07 12:40:48;;;;;;;5.60;3.17;;;;;;;;;;5046062;28;20454;-71
2021/09/07 12:43:19;;;;;;;4.30;2.93;;;;;;;;;;5057942;28;20489;-72
2021/09/07 12:45:47;;;;;;;5.23;3.73;;;;;;;;;;5049065;28;20509;-73
2021/09/07 12:48:16;;;;;;;5.40;3.30;;;;;;;;;;5042815;28;20462;-73
2021/09/07 12:50:44;;;;;;;6.73;4.33;;;;;;;;;;5043112;28;20923;-72
2021/09/07 12:53:18;;;;;;;7.40;3.30;;;;;;;;;;5052684;28;20469;-72
2021/09/07 12:58:48;;;;;;;;;;;;;;;;;;;;;
2021/09/07 13:01:20;;;;;;;4.30;2.73;;;;;;;;;;5052580;28;20471;-72
2021/09/07 13:04:09;;;;;;;4.13;3.00;;;;;;;;;;5051514;28;20575;-72
2021/09/07 13:06:37;;;;;;;4.97;3.00;;;;;;;;;;5041455;28;20944;-71
2021/09/07 13:09:06;;;;;;;4.73;3.20;;;;;;;;;;5049741;28;20469;-72
2021/09/07 13:11:56;;;;;;;4.47;3.03;;;;;;;;;;5047855;28;20469;-72
2021/09/07 13:14:37;;;;;;;3.50;2.87;;;;;;;;;;5023982;28;20542;-72
2021/09/07 13:17:08;;;;;;;7.23;5.00;;;;;;;;;;5027173;28;20538;-71
2021/09/07 13:19:44;;;;;;;6.50;3.63;;;;;;;;;;5033855;28;20853;-72
2021/09/07 13:22:13;;;;;;;4.60;3.10;;;;;;;;;;5043755;28;20495;-71
2021/09/07 13:24:41;;;;;;;6.40;3.80;;;;;;;;;;5034197;28;20455;-72
2021/09/07 13:27:15;;;;;;;6.20;4.20;;;;;;;;;;5047177;28;20553;-72
2021/09/07 13:29:43;;;;;;;4.97;3.03;;;;;;;;;;5052035;28;20492;-73
2021/09/07 13:32:13;;;;;;;4.50;3.37;;;;;;;;;;5050401;28;20928;-73
2021/09/07 13:37:42;;;;;;;5.20;3.50;;;;;;;;;;5044210;28;20454;-73
2021/09/07 13:40:29;;;;;;;5.60;3.17;;;;;;;;;;5049985;28;21136;-73
2021/09/07 13:43:03;;;;;;;4.57;2.93;;;;;;;;;;5041262;28;20482;-72
2021/09/07 13:45:38;;;;;;;6.03;3.43;;;;;;;;;;5038832;28;20541;-73
2021/09/07 13:48:15;;;;;;;5.50;2.97;;;;;;;;;;5046096;28;20873;-73
2021/09/07 13:50:51;;;;;;;5.60;3.17;;;;;;;;;;5034794;28;20477;-73
2021/09/07 14:02:18;;;;;;;8.40;4.40;;;;;;;;;;5012886;28;20477;-74
2021/09/07 14:04:47;;;;;;;11.10;3.70;;;;;;;;;;5036565;28;20454;-73
2021/09/07 14:07:23;;;;;;;5.27;3.60;;;;;;;;;;5042812;28;20455;-73
2021/09/07 14:13:07;;;;;;;9.73;4.40;;;;;;;;;;5027045;28;20449;-73
2021/09/07 14:18:21;;;;;;;4.50;2.80;;;;;;;;;;5042197;28;20523;-73
2021/09/07 14:20:49;;;;;;;4.37;3.00;;;;;;;;;;5055910;28;20449;-72
2021/09/07 14:23:19;;;;;;;4.67;2.80;;;;;;;;;;5055945;28;20485;-71
2021/09/07 14:25:56;;;;;;;6.70;3.00;;;;;;;;;;5046238;28;20477;-73
2021/09/07 14:28:33;;;;;;;6.40;3.27;;;;;;;;;;5056581;28;20496;-73
2021/09/07 14:31:02;;;;;;;7.27;3.90;;;;;;;;;;5049892;28;20479;-73
2021/09/07 14:36:39;;;;;;;5.97;3.80;;;;;;;;;;5034801;28;20500;-73
2021/09/07 14:39:06;;;;;;;7.07;4.70;;;;;;;;;;5041253;28;20548;-73
2021/09/07 14:41:36;;;;;;;7.07;4.77;;;;;;;;;;5042563;28;20793;-74
2021/09/07 14:44:04;;;;;;;8.10;3.90;;;;;;;;;;5037749;28;20961;-74
2021/09/07 14:46:44;;;;;;;9.43;4.53;;;;;;;;;;5036097;28;20476;-75
2021/09/07 14:49:20;;;;;;;11.30;8.90;;;;;;;;;;5044346;28;20957;-75
2021/09/07 14:51:57;;;;;;;7.93;5.13;;;;;;;;;;5045754;28;20470;-75
2021/09/07 14:54:29;;;;;;;7.83;5.27;;;;;;;;;;5043594;28;20469;-74
2021/09/07 14:56:57;;;;;;;9.23;4.30;;;;;;;;;;5053208;28;20591;-74
2021/09/07 14:59:33;;;;;;;5.40;3.93;;;;;;;;;;5051529;28;20469;-75
2021/09/07 15:02:01;;;;;;;6.53;3.73;;;;;;;;;;5051495;28;20555;-74
2021/09/07 15:04:33;;;;;;;6.83;3.90;;;;;;;;;;5039805;28;20837;-75
2021/09/07 15:07:07;;;;;;;6.30;4.93;;;;;;;;;;5034895;28;20459;-73
2021/09/07 15:09:45;;;;;;;5.40;3.90;;;;;;;;;;5042898;28;20561;-73
2021/09/07 15:12:13;;;;;;;9.40;5.17;;;;;;;;;;5036149;28;20870;-73
2021/09/07 15:14:40;;;;;;;8.50;4.17;;;;;;;;;;5035065;28;20470;-74
2021/09/07 15:17:11;;;;;;;7.07;4.37;;;;;;;;;;5035634;28;20530;-73
2021/09/07 15:19:39;;;;;;;6.07;4.37;;;;;;;;;;5035677;28;20465;-72
2021/09/07 15:25:23;;;;;;;4.90;3.50;;;;;;;;;;5033987;28;20446;-75
2021/09/07 15:27:52;;;;;;;8.40;5.07;;;;;;;;;;5039475;28;20457;-72